createdAt,value
2019-01-19T00:04:47.753Z,19.43
2019-01-19T00:10:25.775Z,19.43
2019-01-19T00:16:03.643Z,22.00
2019-01-19T00:21:44.974Z,20.90
2019-01-19T00:27:43.654Z,20.90
2019-01-19T00:33:19.948Z,25.13
2019-01-19T00:39:00.994Z,23.23
2019-01-19T00:44:28.761Z,23.03
2019-01-19T00:49:55.345Z,22.70
2019-01-19T00:55:25.270Z,21.13
2019-01-19T01:00:39.849Z,21.97
2019-01-19T01:06:23.613Z,24.67
2019-01-19T01:12:12.921Z,24.03
2019-01-19T01:17:46.211Z,26.30
2019-01-19T01:23:27.909Z,28.43
2019-01-19T01:29:01.764Z,31.03
2019-01-19T01:34:46.537Z,32.60
2019-01-19T01:40:21.295Z,31.83
2019-01-19T01:46:28.312Z,29.63
2019-01-19T01:52:17.576Z,27.07
2019-01-19T01:57:40.913Z,28.73
2019-01-19T02:03:12.652Z,28.77
2019-01-19T02:08:49.009Z,26.70
2019-01-19T02:14:43.266Z,27.30
2019-01-19T02:20:32.890Z,26.20
2019-01-19T02:26:37.124Z,26.50
2019-01-19T02:32:09.586Z,29.03
2019-01-19T02:37:49.349Z,29.23
2019-01-19T02:43:19.649Z,30.30
2019-01-19T02:49:00.211Z,32.67
2019-01-19T02:54:40.729Z,33.50
2019-01-19T03:00:29.600Z,35.27
2019-01-19T03:06:18.255Z,33.87
2019-01-19T03:11:56.238Z,32.77
2019-01-19T03:17:42.744Z,34.17
2019-01-19T03:23:23.888Z,34.83
2019-01-19T03:29:02.626Z,35.03
2019-01-19T03:34:28.266Z,35.07
2019-01-19T03:40:15.873Z,37.40
2019-01-19T03:46:00.094Z,40.60
2019-01-19T03:51:18.342Z,37.73
2019-01-19T03:57:10.693Z,41.37
2019-01-19T04:02:51.394Z,38.20
2019-01-19T04:08:31.599Z,39.23
2019-01-19T04:14:01.781Z,37.83
2019-01-19T04:19:48.853Z,37.93
2019-01-19T04:25:33.836Z,39.13
2019-01-19T04:30:38.848Z,40.00
2019-01-19T04:35:43.864Z,39.47
2019-01-19T04:40:48.869Z,41.93
2019-01-19T04:45:53.907Z,44.67
2019-01-19T04:50:58.920Z,44.47
2019-01-19T04:56:03.970Z,42.00
2019-01-19T05:01:08.995Z,47.23
2019-01-19T05:06:14.196Z,43.73
2019-01-19T05:11:19.248Z,42.03
2019-01-19T05:16:24.285Z,42.57
2019-01-19T05:21:29.393Z,44.77
2019-01-19T05:26:34.404Z,45.73
2019-01-19T05:31:39.418Z,42.47
2019-01-19T05:36:44.421Z,41.80
2019-01-19T05:41:49.460Z,42.73
2019-01-19T05:46:54.610Z,40.77
2019-01-19T05:51:59.662Z,41.97
2019-01-19T05:57:04.702Z,48.27
2019-01-19T06:02:09.909Z,45.00
2019-01-19T06:07:14.953Z,46.20
2019-01-19T06:12:20.001Z,42.67
2019-01-19T06:17:25.037Z,48.60
2019-01-19T06:22:30.067Z,46.33
2019-01-19T06:27:35.071Z,49.67
2019-01-19T06:32:40.087Z,47.63
2019-01-19T06:37:45.264Z,49.57
2019-01-19T06:42:50.277Z,48.70
2019-01-19T06:47:55.549Z,47.13
2019-01-19T06:53:00.590Z,47.97
2019-01-19T06:58:05.612Z,48.00
2019-01-19T07:03:10.928Z,47.13
2019-01-19T07:08:15.969Z,49.17
2019-01-19T07:13:20.972Z,45.47
2019-01-19T07:18:25.963Z,50.60
2019-01-19T07:23:30.969Z,49.13
2019-01-19T07:28:35.979Z,50.63
2019-01-19T07:33:40.988Z,48.80
2019-01-19T07:38:46.001Z,52.53
2019-01-19T07:43:51.005Z,52.23
2019-01-19T07:48:56.004Z,54.27
2019-01-19T07:54:01.021Z,50.30
2019-01-19T07:59:06.090Z,49.90
2019-01-19T08:04:11.150Z,51.13
2019-01-19T08:09:16.162Z,49.90
2019-01-19T08:14:21.214Z,50.47
2019-01-19T08:19:26.228Z,52.40
2019-01-19T08:24:31.252Z,52.20
2019-01-19T08:29:36.262Z,48.03
2019-01-19T08:34:41.334Z,51.87
2019-01-19T08:39:46.565Z,52.87
2019-01-19T08:44:52.173Z,51.30
2019-01-19T08:49:57.359Z,55.00
2019-01-19T08:55:02.320Z,55.17
2019-01-19T09:00:11.341Z,54.23
2019-01-19T09:05:16.357Z,52.23
2019-01-19T09:10:21.435Z,52.73
2019-01-19T09:15:26.604Z,54.33
2019-01-19T09:20:31.645Z,51.53
2019-01-19T09:25:36.655Z,51.77
2019-01-19T09:30:41.665Z,51.10
2019-01-19T09:35:46.662Z,52.07
2019-01-19T09:40:51.664Z,48.73
2019-01-19T09:45:56.685Z,55.03
2019-01-19T09:51:01.693Z,52.23
2019-01-19T09:56:06.696Z,55.30
2019-01-19T10:01:11.727Z,54.93
2019-01-19T10:06:16.784Z,55.67
2019-01-19T10:11:21.783Z,58.93
2019-01-19T10:16:26.792Z,67.33
2019-01-19T10:21:32.496Z,67.40
2019-01-19T10:26:37.513Z,74.63
2019-01-19T10:31:42.511Z,72.40
2019-01-19T10:36:47.528Z,78.93
2019-01-19T10:41:52.521Z,72.43
2019-01-19T10:46:57.531Z,58.47
2019-01-19T10:52:02.541Z,50.47
2019-01-19T10:57:07.582Z,40.83
2019-01-19T11:02:12.589Z,41.63
2019-01-19T11:07:17.762Z,45.03
2019-01-19T11:12:22.768Z,41.97
2019-01-19T11:17:27.789Z,39.93
2019-01-19T11:22:32.824Z,37.00
2019-01-19T11:27:37.816Z,36.13
2019-01-19T11:32:44.499Z,39.03
2019-01-19T11:37:50.202Z,38.23
2019-01-19T11:42:55.177Z,36.10
2019-01-19T11:48:00.494Z,37.03
2019-01-19T11:53:05.673Z,38.33
2019-01-19T11:58:10.661Z,38.70
2019-01-19T12:03:15.664Z,38.93
2019-01-19T12:08:20.680Z,32.30
2019-01-19T12:13:25.700Z,29.37
2019-01-19T12:18:30.736Z,28.17
2019-01-19T12:23:35.720Z,28.47
2019-01-19T12:28:40.720Z,23.50
2019-01-19T12:33:45.840Z,24.37
2019-01-19T12:38:50.843Z,23.73
2019-01-19T12:43:55.837Z,26.83
2019-01-19T12:49:00.833Z,31.47
2019-01-19T12:54:05.918Z,44.70
2019-01-19T12:59:10.917Z,65.30
2019-01-19T13:04:15.909Z,45.93
2019-01-19T13:09:30.054Z,44.53
2019-01-19T13:14:38.868Z,47.70
2019-01-19T13:20:06.993Z,60.93
2019-01-19T13:25:51.900Z,50.97
2019-01-19T13:31:46.285Z,43.70
2019-01-19T13:37:31.141Z,37.20
2019-01-19T13:43:11.765Z,33.47
2019-01-19T13:48:56.624Z,34.00
2019-01-19T13:54:52.006Z,30.53
2019-01-19T14:00:35.200Z,30.93
2019-01-19T14:06:04.974Z,30.97
2019-01-19T14:11:38.608Z,31.37
2019-01-19T14:17:14.037Z,32.80
2019-01-19T14:23:15.200Z,30.97
2019-01-19T14:29:03.999Z,28.10
2019-01-19T14:34:23.465Z,23.87
2019-01-19T14:39:56.151Z,23.33
2019-01-19T14:45:24.579Z,21.80
2019-01-19T14:51:07.718Z,22.40
2019-01-19T14:56:53.781Z,20.13
2019-01-19T15:02:44.664Z,18.77
2019-01-19T15:08:18.463Z,16.30
2019-01-19T15:14:06.422Z,15.20
2019-01-19T15:19:46.882Z,14.97
2019-01-19T15:25:29.360Z,14.20
2019-01-19T15:31:11.909Z,14.57
2019-01-19T15:36:50.218Z,13.30
2019-01-19T15:42:39.113Z,15.13
2019-01-19T15:48:25.015Z,14.90
2019-01-19T15:53:44.522Z,15.93
2019-01-19T15:59:39.421Z,15.83
2019-01-19T16:05:13.653Z,17.20
2019-01-19T16:11:15.140Z,18.67
2019-01-19T16:16:46.932Z,18.00
2019-01-19T16:22:17.484Z,16.50
2019-01-19T16:27:48.408Z,15.90
2019-01-19T16:33:42.743Z,16.77
2019-01-19T16:39:36.760Z,15.27
2019-01-19T16:45:17.808Z,16.40
2019-01-19T16:50:55.368Z,17.80
2019-01-19T16:56:50.580Z,15.80
2019-01-19T17:02:51.880Z,15.73
2019-01-19T17:08:35.226Z,16.27
2019-01-19T17:14:30.299Z,17.43
2019-01-19T17:20:09.953Z,15.53
2019-01-19T17:25:55.006Z,15.73
2019-01-19T17:31:40.414Z,18.07
2019-01-19T17:37:29.096Z,21.97
2019-01-19T17:43:39.499Z,18.17
2019-01-19T17:49:41.112Z,18.33
2019-01-19T17:55:12.915Z,18.13
2019-01-19T18:00:58.866Z,18.00
2019-01-19T18:07:00.135Z,18.77
2019-01-19T18:12:44.011Z,18.03
2019-01-19T18:18:28.812Z,21.37
2019-01-19T18:24:12.968Z,18.93
2019-01-19T18:29:49.184Z,17.57
2019-01-19T18:35:29.179Z,16.93
2019-01-19T18:41:13.476Z,17.30
2019-01-19T18:47:04.285Z,15.83
2019-01-19T18:52:48.247Z,17.50
2019-01-19T18:58:41.032Z,17.30
2019-01-19T19:04:34.909Z,16.23
2019-01-19T19:10:09.802Z,15.53
2019-01-19T19:16:11.418Z,22.73
2019-01-19T19:21:54.180Z,21.27
2019-01-19T19:27:38.893Z,16.13
2019-01-19T19:33:11.544Z,15.10
2019-01-19T19:38:59.431Z,15.33
2019-01-19T19:44:40.008Z,15.93
2019-01-19T19:50:03.626Z,14.33
2019-01-19T19:55:07.191Z,14.83
2019-01-19T20:00:12.626Z,14.67
2019-01-19T20:05:17.643Z,15.37
2019-01-19T20:10:22.660Z,15.37
2019-01-19T20:15:27.679Z,17.43
2019-01-19T20:20:32.728Z,13.87
2019-01-19T20:25:37.753Z,14.90
2019-01-19T20:30:42.780Z,15.40
2019-01-19T20:35:47.792Z,14.33
2019-01-19T20:40:52.823Z,17.03
2019-01-19T20:46:00.144Z,24.07
2019-01-19T20:51:05.391Z,20.43
2019-01-19T20:56:10.398Z,17.13
2019-01-19T21:01:16.155Z,16.10
2019-01-19T21:06:21.212Z,16.27
2019-01-19T21:11:26.242Z,14.60
2019-01-19T21:16:31.313Z,15.60
2019-01-19T21:21:36.365Z,23.17
2019-01-19T21:26:41.396Z,15.67
2019-01-19T21:31:48.240Z,16.40
2019-01-19T21:36:53.636Z,15.53
2019-01-19T21:41:58.668Z,15.13
2019-01-19T21:47:03.960Z,12.87
2019-01-19T21:52:09.078Z,15.43
2019-01-19T21:57:14.377Z,16.17
2019-01-19T22:02:19.376Z,15.63
2019-01-19T22:07:24.412Z,14.50
2019-01-19T22:12:29.426Z,17.37
2019-01-19T22:17:39.436Z,17.43
2019-01-19T22:22:41.456Z,17.17
2019-01-19T22:27:48.452Z,16.57
2019-01-19T22:32:55.646Z,17.87
2019-01-19T22:38:00.936Z,16.73
2019-01-19T22:43:09.147Z,17.80
2019-01-19T22:48:14.177Z,17.83
2019-01-19T22:53:19.217Z,18.37
2019-01-19T22:58:26.253Z,16.80
2019-01-19T23:03:36.428Z,26.27
2019-01-19T23:08:41.458Z,17.23
2019-01-19T23:13:46.484Z,17.53
2019-01-19T23:18:51.548Z,19.53
2019-01-19T23:23:56.582Z,22.93
2019-01-19T23:29:01.601Z,23.23
2019-01-19T23:34:08.654Z,22.33
2019-01-19T23:39:13.993Z,21.27
2019-01-19T23:44:19.007Z,22.20
2019-01-19T23:49:24.092Z,21.47
2019-01-19T23:54:29.458Z,21.73
2019-01-19T23:59:35.607Z,22.07
